Time;durP1;ratioP1;P1;durP2;ratioP2;P2;SDS_P1;SDS_P2;PMS_P1;PMS_P2;Temp;Humidity;BMP_temperature;BMP_pressure;BME280_temperature;BME280_humidity;BME280_pressure;Samples;Min_cycle;Max_cycle;Signal;HPM_P1;HPM_P2
2021/03/23 00:00:24;;;;;;;1.00;0.90;;;22.60;28.00;;;;;;5053141;28;20036;-55
2021/03/23 00:02:56;;;;;;;1.60;1.00;;;22.60;28.00;;;;;;5053197;28;20436;-58
2021/03/23 00:05:22;;;;;;;1.05;0.93;;;22.60;28.00;;;;;;5052116;28;20036;-55
2021/03/23 00:07:48;;;;;;;1.88;1.10;;;22.60;28.00;;;;;;5053747;28;20124;-58
2021/03/23 00:10:16;;;;;;;2.25;1.13;;;22.60;28.00;;;;;;5035751;28;20025;-56
2021/03/23 00:12:42;;;;;;;1.33;1.10;;;22.60;28.00;;;;;;5053792;28;20083;-58
2021/03/23 00:15:09;;;;;;;1.90;1.05;;;22.60;28.50;;;;;;5053749;28;20041;-59
2021/03/23 00:17:35;;;;;;;2.08;1.50;;;22.60;28.00;;;;;;5052923;28;20029;-57
2021/03/23 00:20:03;;;;;;;1.30;1.00;;;22.50;28.40;;;;;;5051552;28;20059;-62
2021/03/23 00:22:32;;;;;;;1.77;1.30;;;22.50;28.00;;;;;;5053507;28;20028;-58
2021/03/23 00:24:58;;;;;;;1.00;0.90;;;22.60;28.00;;;;;;5052418;28;20360;-60
2021/03/23 00:27:24;;;;;;;1.73;1.17;;;22.50;28.00;;;;;;5053808;28;20025;-59
2021/03/23 00:29:49;;;;;;;1.30;1.02;;;22.50;28.00;;;;;;5053288;28;20032;-56
2021/03/23 00:32:15;;;;;;;2.63;1.20;;;22.50;28.00;;;;;;5052275;28;20025;-56
2021/03/23 00:34:41;;;;;;;1.73;1.10;;;22.50;28.00;;;;;;5052780;28;20039;-58
2021/03/23 00:37:07;;;;;;;1.63;1.20;;;22.50;28.00;;;;;;5053583;28;20033;-58
2021/03/23 00:39:33;;;;;;;1.40;1.23;;;22.50;28.00;;;;;;5053154;28;20037;-58
2021/03/23 00:41:59;;;;;;;1.55;1.10;;;22.50;28.00;;;;;;5053309;28;20035;-58
2021/03/23 00:44:24;;;;;;;1.70;1.10;;;22.50;28.00;;;;;;5053387;28;20086;-56
2021/03/23 00:46:50;;;;;;;1.55;1.33;;;22.50;28.00;;;;;;5053509;28;20032;-59
2021/03/23 00:49:16;;;;;;;1.35;1.20;;;22.50;28.00;;;;;;5053175;28;20364;-57
2021/03/23 00:51:42;;;;;;;2.30;1.23;;;22.40;28.00;;;;;;5052898;28;20333;-58
2021/03/23 00:54:09;;;;;;;1.73;1.13;;;22.50;28.00;;;;;;5055075;28;20040;-59
2021/03/23 00:56:35;;;;;;;3.15;1.15;;;22.40;28.00;;;;;;5056813;28;20032;-57
2021/03/23 00:59:01;;;;;;;1.83;1.30;;;22.40;28.00;;;;;;5056112;28;20103;-55
2021/03/23 01:01:26;;;;;;;1.50;1.00;;;22.40;28.00;;;;;;5056172;28;20028;-58
2021/03/23 01:03:52;;;;;;;2.05;1.35;;;22.40;28.00;;;;;;5056899;28;20040;-60
2021/03/23 01:06:18;;;;;;;1.55;1.20;;;22.40;28.00;;;;;;5056069;28;20039;-60
2021/03/23 01:08:44;;;;;;;1.70;1.20;;;22.40;28.00;;;;;;5056875;28;20069;-56
2021/03/23 01:11:09;;;;;;;1.25;1.13;;;22.40;28.00;;;;;;5056731;28;20376;-57
2021/03/23 01:13:35;;;;;;;1.77;1.30;;;22.40;28.00;;;;;;5055846;28;20115;-60
2021/03/23 01:16:02;;;;;;;1.75;1.30;;;22.40;28.00;;;;;;5056555;28;20047;-58
2021/03/23 01:18:27;;;;;;;1.85;1.02;;;22.40;28.00;;;;;;5038727;28;20041;-56
2021/03/23 01:20:53;;;;;;;1.40;1.10;;;22.40;28.00;;;;;;5056571;28;20039;-55
2021/03/23 01:23:19;;;;;;;1.10;0.95;;;22.40;28.00;;;;;;5054518;28;20094;-59
2021/03/23 01:25:45;;;;;;;2.47;1.25;;;22.40;28.00;;;;;;5056710;28;20448;-54
2021/03/23 01:28:10;;;;;;;1.40;1.10;;;22.40;27.90;;;;;;5055237;28;20025;-59
2021/03/23 01:30:36;;;;;;;1.60;1.00;;;22.40;27.90;;;;;;5056458;28;20436;-54
2021/03/23 01:33:02;;;;;;;1.25;1.15;;;22.30;27.90;;;;;;5054744;28;20372;-56
2021/03/23 01:35:28;;;;;;;1.45;1.08;;;22.40;27.90;;;;;;5056096;28;20113;-57
2021/03/23 01:37:55;;;;;;;4.18;1.50;;;22.40;27.90;;;;;;5055553;28;20104;-58
2021/03/23 01:40:25;;;;;;;1.83;0.98;;;22.30;28.40;;;;;;5056178;28;20024;-52
2021/03/23 01:42:53;;;;;;;1.20;1.08;;;22.30;27.90;;;;;;5055694;28;20040;-59
2021/03/23 01:45:37;;;;;;;1.63;1.10;;;22.30;27.90;;;;;;5055300;28;20029;-56
2021/03/23 01:48:14;;;;;;;1.20;1.00;;;22.30;27.80;;;;;;5055821;28;20033;-56
2021/03/23 01:50:44;;;;;;;1.80;0.98;;;22.30;27.90;;;;;;5056200;28;20028;-60
2021/03/23 01:53:24;;;;;;;1.40;1.20;;;22.30;27.90;;;;;;5056245;28;20029;-57
2021/03/23 01:55:50;;;;;;;1.42;1.10;;;22.30;27.80;;;;;;5051544;28;20445;-60
2021/03/23 01:58:18;;;;;;;1.35;1.02;;;22.30;27.90;;;;;;5052454;28;20039;-59
2021/03/23 02:00:48;;;;;;;1.33;1.10;;;22.30;27.90;;;;;;5055777;28;20028;-58
2021/03/23 02:03:14;;;;;;;1.48;1.20;;;22.30;28.00;;;;;;5052506;28;20448;-57
2021/03/23 02:05:40;;;;;;;1.25;0.98;;;22.30;28.00;;;;;;5055490;28;20065;-59
2021/03/23 02:08:08;;;;;;;1.48;1.13;;;22.30;28.00;;;;;;5054704;28;20076;-57
2021/03/23 02:10:34;;;;;;;1.50;1.00;;;22.30;28.00;;;;;;5055291;28;20025;-58
2021/03/23 02:13:05;;;;;;;2.10;1.35;;;22.30;28.00;;;;;;5055887;28;20033;-56
2021/03/23 02:15:31;;;;;;;1.35;1.17;;;22.30;28.00;;;;;;5055360;28;20041;-57
2021/03/23 02:18:22;;;;;;;2.25;1.23;;;22.30;28.00;;;;;;5055656;28;20037;-56
2021/03/23 02:21:02;;;;;;;1.40;0.95;;;22.30;27.90;;;;;;5055422;28;20043;-53
2021/03/23 02:23:40;;;;;;;1.48;1.10;;;22.30;28.40;;;;;;5054905;28;20170;-64
2021/03/23 02:26:13;;;;;;;1.88;1.20;;;22.20;27.90;;;;;;5055998;28;20555;-55
2021/03/23 02:28:52;;;;;;;1.40;1.00;;;22.20;27.90;;;;;;5054608;28;20037;-57
2021/03/23 02:31:20;;;;;;;1.33;1.10;;;22.20;27.90;;;;;;5054693;28;20032;-60
2021/03/23 02:33:46;;;;;;;1.08;0.93;;;22.20;27.90;;;;;;5055069;28;20449;-59
2021/03/23 02:36:13;;;;;;;1.48;1.08;;;22.20;27.90;;;;;;5054598;28;20139;-57
2021/03/23 02:38:39;;;;;;;1.65;1.08;;;22.20;27.90;;;;;;5054977;28;20021;-56
2021/03/23 02:41:05;;;;;;;2.35;1.55;;;22.20;28.40;;;;;;5055234;28;20083;-59
2021/03/23 02:43:31;;;;;;;1.85;1.23;;;22.20;27.90;;;;;;5054427;28;20380;-56
2021/03/23 02:45:57;;;;;;;2.42;1.15;;;22.20;27.90;;;;;;5054763;28;20051;-55
2021/03/23 02:48:23;;;;;;;1.52;1.17;;;22.20;27.90;;;;;;5052979;28;20401;-55
2021/03/23 02:50:49;;;;;;;2.00;1.10;;;22.20;27.90;;;;;;5053404;28;20341;-57
2021/03/23 02:53:15;;;;;;;1.80;1.40;;;22.20;28.00;;;;;;5054688;28;20064;-56
2021/03/23 02:55:41;;;;;;;2.22;1.48;;;22.20;28.00;;;;;;5054721;28;20041;-56
2021/03/23 02:58:07;;;;;;;1.70;1.27;;;22.20;28.00;;;;;;5055049;28;20044;-58
2021/03/23 03:00:32;;;;;;;1.65;1.48;;;22.20;28.00;;;;;;5054276;28;20036;-57
2021/03/23 03:02:58;;;;;;;1.73;1.40;;;22.20;28.00;;;;;;5055171;28;20391;-55
2021/03/23 03:05:24;;;;;;;1.70;1.40;;;22.20;28.00;;;;;;5054386;28;20447;-60
2021/03/23 03:07:50;;;;;;;2.42;1.60;;;22.20;28.00;;;;;;5054356;28;20036;-55
2021/03/23 03:10:16;;;;;;;1.70;1.50;;;22.20;28.00;;;;;;5054227;28;20441;-57
2021/03/23 03:12:42;;;;;;;1.90;1.35;;;22.20;28.00;;;;;;5054124;28;20029;-59
2021/03/23 03:15:08;;;;;;;1.67;1.33;;;22.20;28.00;;;;;;5052814;28;20388;-60
2021/03/23 03:17:34;;;;;;;1.40;1.30;;;22.20;28.00;;;;;;5054512;28;20158;-61
2021/03/23 03:20:00;;;;;;;2.47;1.45;;;22.20;28.00;;;;;;5053989;28;20139;-55
2021/03/23 03:22:26;;;;;;;2.55;1.73;;;22.10;28.00;;;;;;5054283;28;20044;-56
2021/03/23 03:24:51;;;;;;;1.95;1.65;;;22.10;28.00;;;;;;5053742;28;20025;-51
2021/03/23 03:27:17;;;;;;;2.10;1.60;;;22.10;28.00;;;;;;5054059;28;20037;-56
2021/03/23 03:29:43;;;;;;;1.52;1.35;;;22.20;28.00;;;;;;5054344;28;20112;-57
2021/03/23 03:32:09;;;;;;;2.05;1.67;;;22.10;28.00;;;;;;5054074;28;20036;-57
2021/03/23 03:34:35;;;;;;;2.15;1.85;;;22.10;28.00;;;;;;5052450;28;20425;-56
2021/03/23 03:37:01;;;;;;;2.50;1.63;;;22.10;28.00;;;;;;5053554;28;20085;-58
2021/03/23 03:39:26;;;;;;;2.45;1.85;;;22.10;28.10;;;;;;5054058;28;20048;-56
2021/03/23 03:41:52;;;;;;;2.92;2.17;;;22.10;28.00;;;;;;5053625;28;20040;-58
2021/03/23 03:44:18;;;;;;;3.47;2.00;;;22.10;28.10;;;;;;5053872;28;20021;-55
2021/03/23 03:46:44;;;;;;;2.10;1.77;;;22.10;28.10;;;;;;5053252;28;20384;-53
2021/03/23 03:49:10;;;;;;;2.85;1.85;;;22.10;28.10;;;;;;5054192;28;20443;-58
2021/03/23 03:51:35;;;;;;;2.03;1.70;;;22.10;28.10;;;;;;5053836;28;20444;-57
2021/03/23 03:54:02;;;;;;;1.70;1.58;;;22.10;28.10;;;;;;5053520;28;20032;-56
2021/03/23 03:56:28;;;;;;;1.98;1.70;;;22.10;28.10;;;;;;5053569;28;20037;-54
2021/03/23 03:58:55;;;;;;;1.85;1.50;;;22.10;28.10;;;;;;5054753;28;20128;-54
2021/03/23 04:01:21;;;;;;;2.25;1.85;;;22.10;28.10;;;;;;5052717;28;20025;-53
2021/03/23 04:03:48;;;;;;;2.60;2.00;;;22.00;28.10;;;;;;5055553;28;20029;-56
2021/03/23 04:06:14;;;;;;;2.35;2.05;;;22.00;28.00;;;;;;5055012;28;20037;-52
2021/03/23 04:08:41;;;;;;;3.22;2.20;;;22.00;28.00;;;;;;5054972;28;20025;-53
2021/03/23 04:11:10;;;;;;;2.40;2.03;;;22.00;28.10;;;;;;5055170;28;20123;-54
2021/03/23 04:13:36;;;;;;;2.22;1.58;;;22.00;28.10;;;;;;5038417;28;20321;-53
2021/03/23 04:16:02;;;;;;;2.85;2.00;;;22.00;28.10;;;;;;5052870;28;20052;-57
2021/03/23 04:18:29;;;;;;;2.65;1.90;;;22.00;28.10;;;;;;5052747;28;20480;-53
2021/03/23 04:20:58;;;;;;;1.90;1.70;;;22.00;28.10;;;;;;5053393;28;20029;-53
2021/03/23 04:23:50;;;;;;;2.95;1.98;;;22.00;28.60;;;;;;5053324;28;20035;-58
2021/03/23 04:26:16;;;;;;;3.65;2.00;;;22.00;28.00;;;;;;5050579;28;20033;-60
2021/03/23 04:28:42;;;;;;;2.35;1.80;;;22.00;28.10;;;;;;5057626;28;20037;-55
2021/03/23 04:31:26;;;;;;;3.22;2.00;;;22.00;28.10;;;;;;5058205;28;20040;-51
2021/03/23 04:33:52;;;;;;;2.25;2.00;;;22.00;28.10;;;;;;5059271;28;20108;-58
2021/03/23 04:36:17;;;;;;;1.75;1.60;;;22.00;28.10;;;;;;5056861;28;20183;-55
2021/03/23 04:38:43;;;;;;;2.47;1.85;;;22.00;28.10;;;;;;5057813;28;20029;-58
2021/03/23 04:41:11;;;;;;;2.97;1.90;;;22.00;28.10;;;;;;5058229;28;20381;-54
2021/03/23 04:43:42;;;;;;;2.63;2.17;;;22.00;28.00;;;;;;5058466;28;20025;-54
2021/03/23 04:46:09;;;;;;;2.83;2.20;;;22.00;28.10;;;;;;5058677;28;20043;-55
2021/03/23 04:48:34;;;;;;;2.88;2.28;;;22.00;28.10;;;;;;5057360;28;20120;-58
2021/03/23 04:51:01;;;;;;;2.88;2.25;;;22.00;28.10;;;;;;5056578;28;20409;-62
2021/03/23 04:53:30;;;;;;;2.83;2.33;;;22.00;28.10;;;;;;5056061;28;20033;-60
2021/03/23 04:55:57;;;;;;;2.72;2.45;;;22.00;28.10;;;;;;5056675;28;20037;-58
2021/03/23 04:58:25;;;;;;;2.97;2.08;;;22.00;28.10;;;;;;5057064;28;20033;-59
2021/03/23 05:00:51;;;;;;;2.95;2.20;;;22.00;28.10;;;;;;5056940;28;20032;-57
2021/03/23 05:03:26;;;;;;;2.53;2.33;;;22.00;28.10;;;;;;5056876;28;20044;-55
2021/03/23 05:05:53;;;;;;;2.50;2.13;;;22.00;28.10;;;;;;5056788;28;20037;-56
2021/03/23 05:08:20;;;;;;;2.80;2.20;;;22.00;28.10;;;;;;5056846;28;21906;-59
2021/03/23 05:10:46;;;;;;;3.63;2.17;;;22.00;28.10;;;;;;5056919;28;20115;-60
2021/03/23 05:13:12;;;;;;;2.85;2.45;;;22.00;28.10;;;;;;5056638;28;20088;-57
2021/03/23 05:15:38;;;;;;;3.50;2.30;;;22.00;28.10;;;;;;5056679;28;20045;-52
2021/03/23 05:18:04;;;;;;;2.92;2.25;;;22.00;28.10;;;;;;5056800;28;20032;-56
2021/03/23 05:20:30;;;;;;;3.15;2.40;;;21.90;28.10;;;;;;5055213;28;20759;-57
2021/03/23 05:22:56;;;;;;;3.25;2.58;;;22.00;28.10;;;;;;5057301;28;20087;-57
2021/03/23 05:25:22;;;;;;;4.40;2.58;;;21.90;28.10;;;;;;5054558;28;20029;-57
2021/03/23 05:27:48;;;;;;;3.30;2.35;;;21.90;28.10;;;;;;5056531;28;20456;-59
2021/03/23 05:30:15;;;;;;;3.67;3.05;;;21.90;28.10;;;;;;5054743;28;20039;-59
2021/03/23 05:32:40;;;;;;;3.58;2.83;;;21.90;28.10;;;;;;5056593;28;20025;-57
2021/03/23 05:35:08;;;;;;;2.75;2.25;;;21.90;28.10;;;;;;5055624;28;20040;-57
2021/03/23 05:37:34;;;;;;;2.72;2.17;;;21.90;28.20;;;;;;5054721;28;20526;-51
2021/03/23 05:39:59;;;;;;;2.75;2.45;;;21.90;28.20;;;;;;5055487;28;20041;-57
2021/03/23 05:42:33;;;;;;;4.45;2.90;;;21.90;28.20;;;;;;5056272;28;20024;-56
2021/03/23 05:45:30;;;;;;;3.10;2.38;;;21.90;28.30;;;;;;5055922;28;20328;-54
2021/03/23 05:48:16;;;;;;;2.90;2.40;;;21.90;28.30;;;;;;5056264;28;20037;-57
2021/03/23 05:50:47;;;;;;;2.80;2.15;;;21.90;28.20;;;;;;5055792;28;20105;-52
2021/03/23 05:53:18;;;;;;;3.60;2.60;;;21.80;28.20;;;;;;5056227;28;20086;-57
2021/03/23 05:55:46;;;;;;;2.92;2.53;;;21.90;28.30;;;;;;5055963;28;20067;-57
2021/03/23 05:58:23;;;;;;;3.40;2.75;;;21.80;28.30;;;;;;5055238;28;20420;-57
2021/03/23 06:01:01;;;;;;;3.80;2.65;;;21.90;28.30;;;;;;5056031;28;20057;-57
2021/03/23 06:03:39;;;;;;;2.45;2.08;;;21.80;28.20;;;;;;5054121;28;20456;-58
2021/03/23 06:06:05;;;;;;;3.53;2.60;;;21.90;28.30;;;;;;5055960;28;20029;-54
2021/03/23 06:08:33;;;;;;;3.60;2.65;;;21.80;28.30;;;;;;5055358;28;20086;-58
2021/03/23 06:11:02;;;;;;;3.33;2.78;;;21.80;28.30;;;;;;5053809;28;20052;-55
2021/03/23 06:13:36;;;;;;;3.30;2.67;;;21.80;28.30;;;;;;5036059;28;20037;-60
2021/03/23 06:16:44;;;;;;;3.15;2.65;;;21.80;28.30;;;;;;5054984;28;20345;-54
2021/03/23 06:19:38;;;;;;;4.25;2.70;;;21.80;28.30;;;;;;5043994;28;20048;-60
2021/03/23 06:22:29;;;;;;;3.15;2.58;;;21.80;28.30;;;;;;5055263;28;20063;-57
2021/03/23 06:25:19;;;;;;;3.08;2.47;;;21.80;28.30;;;;;;5055560;28;20071;-59
2021/03/23 06:28:03;;;;;;;3.33;2.60;;;21.80;28.40;;;;;;5054157;28;20043;-56
2021/03/23 06:31:14;;;;;;;3.53;2.70;;;21.80;28.30;;;;;;5054537;28;20025;-56
2021/03/23 06:33:40;;;;;;;3.03;2.40;;;21.80;28.40;;;;;;5020889;28;20073;-55
2021/03/23 06:36:25;;;;;;;3.55;2.80;;;21.80;28.40;;;;;;5055445;28;20076;-57
2021/03/23 06:38:51;;;;;;;3.50;2.78;;;21.80;28.40;;;;;;5054732;28;20032;-55
2021/03/23 06:41:25;;;;;;;4.47;3.00;;;21.80;28.40;;;;;;5053570;28;20025;-58
2021/03/23 06:43:55;;;;;;;2.63;2.42;;;21.80;28.40;;;;;;5054219;28;20057;-56
2021/03/23 06:46:40;;;;;;;3.10;2.63;;;21.80;28.40;;;;;;5053700;28;20036;-57
2021/03/23 06:49:14;;;;;;;3.45;2.30;;;21.80;28.40;;;;;;5046394;28;20508;-57
2021/03/23 06:51:57;;;;;;;3.70;2.78;;;21.80;28.50;;;;;;5055483;28;20120;-58
2021/03/23 06:54:31;;;;;;;3.97;2.70;;;21.80;28.50;;;;;;5054345;28;20032;-57
2021/03/23 06:57:06;;;;;;;3.88;2.85;;;21.80;28.50;;;;;;5053955;28;20069;-59
2021/03/23 07:00:00;;;;;;;4.00;2.67;;;21.80;28.50;;;;;;5054713;28;20024;-58
2021/03/23 07:02:43;;;;;;;2.75;2.40;;;21.80;28.50;;;;;;5053185;28;20053;-56
2021/03/23 07:05:30;;;;;;;3.38;2.83;;;21.80;28.60;;;;;;5055247;28;20044;-56
2021/03/23 07:08:08;;;;;;;3.97;2.90;;;21.80;28.60;;;;;;5042895;28;20036;-54
2021/03/23 07:10:39;;;;;;;4.63;3.03;;;21.80;28.60;;;;;;5054055;28;20128;-57
2021/03/23 07:13:06;;;;;;;3.45;2.70;;;21.80;28.60;;;;;;5049603;28;20044;-56
2021/03/23 07:15:38;;;;;;;3.30;2.75;;;21.80;28.60;;;;;;5054656;28;20033;-60
2021/03/23 07:18:19;;;;;;;4.25;2.85;;;21.80;28.60;;;;;;5053981;28;20053;-58
2021/03/23 07:20:49;;;;;;;3.83;2.95;;;21.80;28.60;;;;;;5054301;28;20448;-59
2021/03/23 07:23:45;;;;;;;4.22;2.90;;;21.80;28.70;;;;;;5052799;28;20037;-61
2021/03/23 07:26:28;;;;;;;4.35;3.28;;;21.80;28.60;;;;;;5041467;28;20409;-58
2021/03/23 07:29:13;;;;;;;5.28;3.80;;;21.80;28.70;;;;;;5053815;28;20029;-59
2021/03/23 07:31:41;;;;;;;4.95;3.22;;;21.80;28.70;;;;;;5054647;28;20024;-58
2021/03/23 07:34:20;;;;;;;4.95;3.60;;;21.80;28.70;;;;;;5053884;28;20025;-61
2021/03/23 07:36:55;;;;;;;4.25;3.33;;;21.80;28.80;;;;;;5052439;28;20045;-58
2021/03/23 07:39:48;;;;;;;6.18;3.83;;;21.80;28.90;;;;;;5049426;28;20033;-58
2021/03/23 07:42:38;;;;;;;6.43;4.60;;;21.80;28.90;;;;;;5042668;28;20033;-55
2021/03/23 07:45:26;;;;;;;5.47;3.53;;;21.80;29.00;;;;;;5051555;28;20033;-60
2021/03/23 07:48:10;;;;;;;4.55;3.35;;;21.90;29.10;;;;;;5047193;28;20414;-59
2021/03/23 07:50:40;;;;;;;5.97;4.05;;;21.90;29.10;;;;;;5051313;28;20033;-57
2021/03/23 07:53:11;;;;;;;6.38;3.70;;;22.00;29.10;;;;;;5052946;28;20116;-59
2021/03/23 07:55:37;;;;;;;4.53;3.55;;;22.00;29.10;;;;;;5047736;28;20116;-60
2021/03/23 07:58:28;;;;;;;5.47;4.00;;;22.10;29.00;;;;;;5052337;28;20126;-58
2021/03/23 08:01:22;;;;;;;6.53;4.68;;;22.20;29.00;;;;;;5043614;28;20087;-59
2021/03/23 08:04:13;;;;;;;5.68;4.30;;;22.40;28.90;;;;;;5047082;28;20041;-58
2021/03/23 08:06:51;;;;;;;6.75;4.93;;;22.50;28.90;;;;;;5040572;28;20393;-59
2021/03/23 08:09:37;;;;;;;6.68;4.55;;;22.60;28.80;;;;;;5052969;28;20025;-59
2021/03/23 08:12:31;;;;;;;6.25;4.90;;;22.70;28.70;;;;;;5051339;28;20033;-57
2021/03/23 08:15:12;;;;;;;6.72;4.88;;;22.80;28.70;;;;;;5053586;28;20124;-57
2021/03/23 08:17:54;;;;;;;6.30;5.38;;;23.00;28.70;;;;;;5052787;28;20388;-58
2021/03/23 08:20:47;;;;;;;6.93;5.68;;;23.00;28.60;;;;;;5045240;28;20037;-57
2021/03/23 08:23:37;;;;;;;6.40;5.10;;;23.10;28.70;;;;;;5045802;28;20048;-58
2021/03/23 08:26:38;;;;;;;6.22;5.20;;;23.20;28.70;;;;;;5048359;28;20393;-53
2021/03/23 08:29:27;;;;;;;7.55;4.95;;;23.30;28.80;;;;;;5048767;28;20108;-60
2021/03/23 08:32:13;;;;;;;6.72;5.18;;;23.40;28.80;;;;;;5052953;28;20651;-53
2021/03/23 08:34:51;;;;;;;5.90;4.78;;;23.50;28.90;;;;;;5048583;28;20033;-61
2021/03/23 08:37:37;;;;;;;5.80;4.82;;;23.60;28.80;;;;;;5048923;28;20428;-59
2021/03/23 08:40:26;;;;;;;6.45;5.10;;;23.70;28.80;;;;;;5049067;28;20116;-58
2021/03/23 08:42:52;;;;;;;6.40;5.38;;;23.70;28.70;;;;;;5012447;28;20041;-56
2021/03/23 08:45:35;;;;;;;7.63;5.22;;;23.80;28.70;;;;;;5050405;28;20029;-55
2021/03/23 08:48:23;;;;;;;5.80;5.20;;;23.80;28.60;;;;;;5045170;28;20029;-52
2021/03/23 08:50:54;;;;;;;5.70;4.95;;;23.90;28.60;;;;;;5046371;28;20029;-58
2021/03/23 08:53:31;;;;;;;6.22;5.05;;;23.90;28.50;;;;;;5051850;28;20090;-55
2021/03/23 08:55:57;;;;;;;7.38;6.07;;;24.00;28.50;;;;;;5049749;28;20041;-62
2021/03/23 08:58:39;;;;;;;6.97;5.78;;;24.00;28.40;;;;;;5033050;28;20029;-55
2021/03/23 09:01:31;;;;;;;6.30;5.07;;;24.00;28.40;;;;;;5049833;28;20037;-57
2021/03/23 09:04:02;;;;;;;6.72;5.15;;;24.00;28.30;;;;;;5043474;28;20049;-59
2021/03/23 09:07:00;;;;;;;6.70;5.63;;;24.00;28.40;;;;;;5043117;28;20033;-55
2021/03/23 09:09:28;;;;;;;6.78;5.50;;;24.10;28.40;;;;;;5051152;28;20082;-57
2021/03/23 09:12:31;;;;;;;7.13;5.57;;;24.10;28.40;;;;;;5047980;28;20032;-56
2021/03/23 09:15:18;;;;;;;4.97;4.50;;;24.10;28.40;;;;;;5054500;28;20025;-60
2021/03/23 09:18:01;;;;;;;5.38;4.47;;;24.10;28.50;;;;;;5046831;28;20110;-63
2021/03/23 09:20:36;;;;;;;5.75;4.20;;;24.10;28.60;;;;;;5054425;28;20452;-61
2021/03/23 09:23:24;;;;;;;4.85;4.05;;;24.10;28.70;;;;;;5042694;28;20033;-61
2021/03/23 09:25:55;;;;;;;4.93;3.90;;;24.20;28.80;;;;;;5056283;28;20040;-63
2021/03/23 09:28:34;;;;;;;5.00;3.90;;;24.10;28.80;;;;;;5055785;28;20029;-60
2021/03/23 09:31:13;;;;;;;5.10;4.10;;;24.20;28.80;;;;;;5051735;28;20034;-66
2021/03/23 09:33:51;;;;;;;6.15;4.45;;;24.20;28.80;;;;;;5041815;28;20057;-65
2021/03/23 09:36:22;;;;;;;4.38;3.72;;;24.20;28.80;;;;;;5050197;28;20487;-58
2021/03/23 09:38:55;;;;;;;;;;;24.20;28.80;;;;;;5055718;28;20059;-62
2021/03/23 09:41:21;;;;;;;5.35;3.70;;;24.20;28.80;;;;;;5047527;28;19920;-56
2021/03/23 09:43:53;;;;;;;5.25;3.85;;;24.20;28.80;;;;;;5038776;28;20037;-60
2021/03/23 09:46:22;;;;;;;4.97;4.00;;;24.20;28.70;;;;;;5047381;28;20035;-60
2021/03/23 09:49:10;;;;;;;4.85;4.18;;;24.20;29.20;;;;;;5049181;28;20204;-62
2021/03/23 09:51:57;;;;;;;5.60;4.57;;;24.30;28.80;;;;;;5051758;28;20532;-63
2021/03/23 09:54:35;;;;;;;6.30;5.25;;;24.20;28.70;;;;;;5052983;28;20480;-63
2021/03/23 09:57:09;;;;;;;6.40;5.13;;;24.20;28.70;;;;;;5055168;28;20037;-63
2021/03/23 09:59:42;;;;;;;5.78;4.82;;;24.20;28.70;;;;;;5054042;28;20044;-63
2021/03/23 10:02:31;;;;;;;5.93;4.97;;;24.20;28.70;;;;;;5034853;28;20040;-63
2021/03/23 10:05:24;;;;;;;7.07;5.43;;;24.20;28.60;;;;;;5052953;28;20056;-63
2021/03/23 10:07:52;;;;;;;6.05;5.07;;;24.20;28.60;;;;;;5055286;28;20429;-62
2021/03/23 10:10:26;;;;;;;6.30;5.20;;;24.20;28.60;;;;;;5055587;28;20086;-64
2021/03/23 10:12:53;;;;;;;5.85;5.00;;;24.20;28.60;;;;;;5050738;28;20029;-63
2021/03/23 10:15:39;;;;;;;4.95;4.45;;;24.20;28.60;;;;;;5054587;28;20133;-64
2021/03/23 10:18:39;;;;;;;5.95;4.75;;;24.20;28.50;;;;;;5053939;28;20048;-61
2021/03/23 10:21:13;;;;;;;6.18;4.70;;;24.20;28.50;;;;;;5035648;28;20369;-64
2021/03/23 10:23:50;;;;;;;5.10;4.30;;;24.20;28.50;;;;;;5047257;28;20097;-61
2021/03/23 10:26:16;;;;;;;6.35;4.40;;;24.20;28.50;;;;;;5055379;28;20032;-62
2021/03/23 10:28:51;;;;;;;5.68;4.40;;;24.10;28.50;;;;;;5050620;28;20036;-63
2021/03/23 10:31:33;;;;;;;5.97;4.20;;;24.10;28.50;;;;;;5052436;28;20342;-63
2021/03/23 10:34:08;;;;;;;5.70;4.40;;;24.10;28.50;;;;;;5053369;28;20121;-61
2021/03/23 10:36:50;;;;;;;4.97;3.75;;;24.10;28.50;;;;;;5051932;28;20119;-62
2021/03/23 10:39:26;;;;;;;5.72;4.10;;;24.10;28.50;;;;;;5053145;28;20017;-62
2021/03/23 10:41:52;;;;;;;4.78;3.88;;;24.10;28.60;;;;;;5050729;28;20040;-63
2021/03/23 10:44:25;;;;;;;4.75;3.90;;;24.10;28.60;;;;;;5050293;28;20036;-62
2021/03/23 10:46:51;;;;;;;5.97;4.35;;;24.10;28.50;;;;;;5044709;28;20402;-61
2021/03/23 10:49:29;;;;;;;5.00;3.92;;;24.10;28.50;;;;;;5054931;28;20440;-61
2021/03/23 10:51:56;;;;;;;5.60;4.28;;;24.10;28.50;;;;;;5053825;28;20033;-63
2021/03/23 10:54:26;;;;;;;4.45;3.97;;;24.10;28.50;;;;;;5035900;28;20528;-62
2021/03/23 10:56:55;;;;;;;5.25;4.40;;;24.10;28.50;;;;;;5050897;28;20310;-62
2021/03/23 10:59:31;;;;;;;5.50;4.00;;;24.10;28.50;;;;;;5049543;28;20120;-62
2021/03/23 11:02:15;;;;;;;5.00;4.28;;;24.10;28.50;;;;;;5046314;28;20033;-62
2021/03/23 11:05:05;;;;;;;5.03;4.10;;;24.10;28.50;;;;;;5052738;28;20033;-62
2021/03/23 11:07:30;;;;;;;5.70;4.30;;;24.10;28.50;;;;;;5052760;28;20352;-62
2021/03/23 11:10:00;;;;;;;6.10;4.50;;;24.00;28.50;;;;;;5048633;28;20072;-61
2021/03/23 11:12:29;;;;;;;5.65;4.80;;;24.10;28.60;;;;;;5048778;28;20116;-62
2021/03/23 11:14:58;;;;;;;5.13;4.20;;;24.00;28.50;;;;;;5041838;28;20044;-63
2021/03/23 11:17:25;;;;;;;5.85;4.20;;;24.00;28.60;;;;;;5043793;28;20032;-62
2021/03/23 11:19:57;;;;;;;5.15;4.03;;;24.00;28.60;;;;;;5018935;28;20558;-62
2021/03/23 11:22:31;;;;;;;5.85;4.45;;;24.00;28.60;;;;;;5024165;28;20059;-62
2021/03/23 11:24:57;;;;;;;4.70;4.07;;;24.00;28.60;;;;;;5025529;28;20037;-62
2021/03/23 11:27:26;;;;;;;7.43;5.00;;;24.00;28.60;;;;;;5029299;28;20339;-59
2021/03/23 11:29:58;;;;;;;5.80;4.68;;;24.00;28.60;;;;;;5028342;28;20108;-58
2021/03/23 11:32:24;;;;;;;5.07;4.13;;;23.90;28.70;;;;;;5029359;28;20369;-63
2021/03/23 11:34:51;;;;;;;5.38;4.22;;;23.90;28.80;;;;;;5033314;28;20060;-62
2021/03/23 11:37:19;;;;;;;5.80;4.30;;;23.90;28.90;;;;;;5031809;28;20437;-64
2021/03/23 11:39:46;;;;;;;5.93;4.07;;;23.90;29.00;;;;;;5031174;28;20354;-55
2021/03/23 11:42:28;;;;;;;4.97;4.45;;;23.90;29.00;;;;;;5024698;28;20026;-54
2021/03/23 11:45:00;;;;;;;5.82;4.50;;;23.90;29.10;;;;;;5031643;28;20347;-56
2021/03/23 11:47:56;;;;;;;5.07;4.53;;;23.80;29.10;;;;;;5031645;28;20030;-56
2021/03/23 11:50:25;;;;;;;5.80;4.50;;;23.80;29.20;;;;;;5008684;28;20056;-62
2021/03/23 11:52:53;;;;;;;6.40;4.40;;;23.80;29.20;;;;;;5008952;28;20060;-61
2021/03/23 11:55:23;;;;;;;6.32;4.40;;;23.80;29.30;;;;;;5031417;28;20073;-55
2021/03/23 11:57:50;;;;;;;6.00;4.53;;;23.70;29.30;;;;;;5030420;28;20026;-54
2021/03/23 12:00:18;;;;;;;5.32;4.32;;;23.70;29.40;;;;;;5032083;28;20087;-57
2021/03/23 12:02:44;;;;;;;6.22;5.05;;;23.80;29.50;;;;;;5028624;28;20075;-58
2021/03/23 12:05:11;;;;;;;5.95;4.45;;;23.80;29.60;;;;;;5009738;28;20026;-54
2021/03/23 12:08:08;;;;;;;5.57;4.65;;;23.70;29.60;;;;;;5032110;28;20503;-61
2021/03/23 12:10:59;;;;;;;5.55;3.67;;;23.80;29.70;;;;;;5031130;28;20388;-61
2021/03/23 12:13:40;;;;;;;5.68;4.50;;;23.80;29.70;;;;;;5031948;28;20025;-61
2021/03/23 12:16:18;;;;;;;4.95;4.28;;;23.80;29.70;;;;;;5027418;28;20065;-57
2021/03/23 12:19:07;;;;;;;7.22;4.57;;;23.70;29.70;;;;;;5036094;28;20122;-61
2021/03/23 12:21:34;;;;;;;5.80;4.63;;;23.70;29.70;;;;;;5051400;28;21187;-57
2021/03/23 12:24:00;;;;;;;6.50;4.40;;;23.70;29.80;;;;;;5050123;28;20022;-60
2021/03/23 12:26:26;;;;;;;6.25;4.22;;;23.70;29.70;;;;;;5043755;28;20021;-57
2021/03/23 12:28:52;;;;;;;5.80;4.78;;;23.60;29.70;;;;;;5051913;28;20083;-57
2021/03/23 12:31:19;;;;;;;5.38;4.55;;;23.70;29.80;;;;;;5051784;28;20052;-53
2021/03/23 12:33:46;;;;;;;8.18;4.85;;;23.70;29.80;;;;;;5052477;28;20448;-59
2021/03/23 12:36:14;;;;;;;6.10;4.63;;;23.60;29.70;;;;;;5051444;28;20047;-58
2021/03/23 12:38:45;;;;;;;5.03;4.25;;;23.60;29.80;;;;;;5052179;28;20091;-58
2021/03/23 12:41:19;;;;;;;5.97;4.43;;;23.60;29.80;;;;;;5049788;28;20057;-61
2021/03/23 12:43:50;;;;;;;6.32;4.82;;;23.60;30.30;;;;;;5051058;28;20025;-59
2021/03/23 12:46:17;;;;;;;9.18;6.07;;;23.60;29.90;;;;;;5051508;28;20476;-62
2021/03/23 12:48:44;;;;;;;9.40;6.93;;;23.60;29.90;;;;;;5053699;28;20047;-58
2021/03/23 12:51:29;;;;;;;8.48;7.57;;;23.60;30.00;;;;;;5056013;28;20025;-60
2021/03/23 12:53:57;;;;;;;10.85;8.40;;;23.60;30.00;;;;;;5056764;28;20029;-57
2021/03/23 12:56:23;;;;;;;11.30;8.90;;;23.60;30.00;;;;;;5054183;28;20460;-59
2021/03/23 12:58:49;;;;;;;10.10;8.48;;;23.50;30.00;;;;;;5056389;28;20025;-60
2021/03/23 13:01:15;;;;;;;11.23;9.30;;;23.60;30.00;;;;;;5043207;28;20025;-60
2021/03/23 13:03:41;;;;;;;12.23;10.05;;;23.50;30.00;;;;;;5052377;28;20116;-62
2021/03/23 13:06:12;;;;;;;12.00;9.77;;;23.50;30.00;;;;;;5053057;28;20433;-59
2021/03/23 13:08:38;;;;;;;13.02;9.82;;;23.50;30.00;;;;;;5052339;28;20404;-58
2021/03/23 13:11:17;;;;;;;12.65;10.60;;;23.60;30.10;;;;;;5055751;28;20343;-60
2021/03/23 13:13:48;;;;;;;11.32;9.60;;;23.60;30.10;;;;;;5037205;28;20082;-62